Time;durP1;ratioP1;P1;durP2;ratioP2;P2;SDS_P1;SDS_P2;PMS_P1;PMS_P2;Temp;Humidity;BMP_temperature;BMP_pressure;BME280_temperature;BME280_humidity;BME280_pressure;Samples;Min_cycle;Max_cycle;Signal;HPM_P1;HPM_P2
2021/09/12 05:03:44;;;;;;;15.48;10.05;;;;;;;10.86;78.77;100441.32;1388456;85;21613;-93
2021/09/12 05:06:12;;;;;;;16.50;11.43;;;;;;;10.92;79.30;100441.55;1363915;90;21258;-95
2021/09/12 05:08:40;;;;;;;20.57;10.27;;;;;;;10.93;79.37;100443.20;1350376;92;21243;-91
2021/09/12 05:11:07;;;;;;;27.57;11.80;;;;;;;10.99;78.89;100441.77;1359904;91;21489;-92
2021/09/12 05:13:38;;;;;;;26.23;13.40;;;;;;;11.03;78.81;100440.02;1339504;92;21224;-90
2021/09/12 05:16:05;;;;;;;20.32;11.83;;;;;;;11.06;78.59;100438.88;1338416;92;21313;-89
2021/09/12 05:18:33;;;;;;;18.17;11.27;;;;;;;11.05;77.44;100446.50;1339301;92;22064;-92
2021/09/12 05:21:00;;;;;;;23.10;11.00;;;;;;;11.07;77.78;100448.48;1338147;92;21305;-91
2021/09/12 05:23:29;;;;;;;20.40;11.23;;;;;;;11.12;77.95;100447.55;1325990;94;22234;-91
2021/09/12 05:25:57;;;;;;;19.73;13.03;;;;;;;11.15;78.00;100445.09;1339769;92;21281;-92
2021/09/12 05:28:24;;;;;;;15.10;10.70;;;;;;;11.24;77.81;100447.66;1339027;92;21342;-92
2021/09/12 05:30:54;;;;;;;19.90;10.93;;;;;;;11.36;77.80;100446.11;1339553;92;22218;-92
2021/09/12 05:33:21;;;;;;;21.20;9.97;;;;;;;11.44;78.61;100451.48;1336875;92;22647;-91
2021/09/12 05:35:48;;;;;;;17.07;10.33;;;;;;;11.51;78.37;100452.05;1338114;92;21407;-91
2021/09/12 05:38:19;;;;;;;15.40;8.93;;;;;;;11.58;78.50;100445.64;1319928;93;22228;-93
2021/09/12 05:40:46;;;;;;;17.20;9.45;;;;;;;11.69;78.72;100450.70;1342476;92;22811;-92
2021/09/12 05:43:14;;;;;;;14.60;9.77;;;;;;;11.81;78.54;100449.95;1338588;91;22281;-92
2021/09/12 05:45:44;;;;;;;14.13;10.00;;;;;;;11.96;78.48;100449.75;1320561;94;21540;-89
2021/09/12 05:48:12;;;;;;;13.70;10.55;;;;;;;12.14;78.64;100456.81;1339170;92;22730;-91
2021/09/12 05:50:39;;;;;;;19.30;12.03;;;;;;;12.31;78.57;100460.39;1339302;92;21347;-91
2021/09/12 05:53:09;;;;;;;22.00;11.50;;;;;;;12.44;78.31;100456.82;1338462;92;22355;-91
2021/09/12 05:55:38;;;;;;;18.80;12.18;;;;;;;12.60;78.18;100458.23;1339511;92;21414;-88
2021/09/12 05:58:05;;;;;;;20.40;12.07;;;;;;;12.81;77.93;100454.31;1339510;92;21369;-89
2021/09/12 06:00:32;;;;;;;20.97;12.53;;;;;;;13.06;77.81;100460.03;1338434;91;22273;-88
2021/09/12 06:03:00;;;;;;;24.83;12.37;;;;;;;13.28;77.48;100455.09;1333284;92;22130;-88
2021/09/12 06:05:27;;;;;;;19.27;10.97;;;;;;;13.49;77.22;100455.94;1335966;92;21533;-89
2021/09/12 06:08:01;;;;;;;25.00;12.17;;;;;;;13.71;76.82;100463.75;1351685;92;21318;-88
2021/09/12 06:10:29;;;;;;;19.97;11.63;;;;;;;13.94;76.58;100459.91;1347927;91;21333;-88
2021/09/12 06:12:57;;;;;;;19.13;12.00;;;;;;;14.19;76.19;100463.36;1348296;91;21414;-88
2021/09/12 06:15:27;;;;;;;19.97;10.83;;;;;;;14.42;75.85;100462.95;1322468;94;21192;-87
2021/09/12 06:17:55;;;;;;;;;;;;;;;14.64;75.49;100464.55;1358602;91;21310;-87
2021/09/12 06:20:22;;;;;;;15.57;9.93;;;;;;;14.80;75.60;100462.33;1343677;93;20244;-89
2021/09/12 06:22:54;;;;;;;23.83;11.53;;;;;;;14.96;75.15;100458.73;1356978;91;22197;-91
2021/09/12 06:25:21;;;;;;;17.37;9.20;;;;;;;15.09;74.96;100459.00;1349200;91;21437;-90
2021/09/12 06:27:49;;;;;;;14.73;9.30;;;;;;;15.24;74.76;100454.56;1347853;92;21429;-92
2021/09/12 06:30:18;;;;;;;17.57;9.87;;;;;;;15.38;74.95;100459.63;1337089;93;21428;-90
2021/09/12 06:32:47;;;;;;;15.57;9.83;;;;;;;15.51;74.38;100463.05;1347907;91;21252;-89
2021/09/12 06:35:16;;;;;;;21.30;9.23;;;;;;;15.62;74.26;100461.27;1348283;91;21414;-91
2021/09/12 06:37:43;;;;;;;18.80;8.97;;;;;;;15.73;74.24;100462.72;1348078;91;21267;-89
2021/09/12 06:40:12;;;;;;;18.67;9.20;;;;;;;15.86;73.81;100464.79;1336650;92;21324;-88
2021/09/12 06:42:40;;;;;;;18.07;9.73;;;;;;;15.99;72.99;100458.30;1348091;92;22226;-89
2021/09/12 06:49:25;;;;;;;14.97;8.03;;;;;;;16.30;72.75;100465.33;1347275;106;21274;-89
2021/09/12 06:51:56;;;;;;;20.67;8.53;;;;;;;16.65;72.07;100469.91;1335694;92;21429;-89
2021/09/12 06:54:38;;;;;;;15.47;9.43;;;;;;;16.71;70.75;100468.33;1337719;92;21418;-89
2021/09/12 06:57:06;;;;;;;14.07;8.33;;;;;;;16.89;70.56;100468.81;1336499;92;21267;-89
2021/09/12 06:59:49;;;;;;;17.03;8.27;;;;;;;17.06;70.13;100468.08;1348214;91;21333;-89
2021/09/12 07:02:19;;;;;;;9.80;7.07;;;;;;;17.25;69.71;100465.80;1346299;92;21340;-89
2021/09/12 07:05:09;;;;;;;11.83;6.85;;;;;;;17.45;69.25;100458.79;1352262;91;21529;-90
2021/09/12 07:07:51;;;;;;;26.60;8.03;;;;;;;17.62;68.47;100458.53;1357264;91;21310;-89
2021/09/12 07:10:19;;;;;;;12.13;7.47;;;;;;;17.85;68.64;100464.52;1357877;91;22108;-90
2021/09/12 07:12:47;;;;;;;14.23;7.43;;;;;;;18.10;67.99;100464.09;1358619;91;21362;-90
2021/09/12 07:15:14;;;;;;;12.90;7.27;;;;;;;18.34;68.20;100465.46;1358990;91;21473;-90
2021/09/12 13:41:52;;;;;;;5.20;2.92;;;;;;;37.42;18.79;100259.09;1357757;88;21629;-86
2021/09/12 13:44:20;;;;;;;3.23;2.87;;;;;;;37.47;18.07;100253.98;1379299;89;21334;-85
2021/09/12 13:46:47;;;;;;;5.77;2.57;;;;;;;36.87;15.85;100253.62;1369693;90;22390;-85
2021/09/12 13:49:15;;;;;;;5.90;2.77;;;;;;;37.01;17.31;100259.77;1372356;90;22347;-85
2021/09/12 13:52:10;;;;;;;3.92;2.62;;;;;;;36.90;16.24;100256.52;1371478;89;22623;-85
2021/09/12 13:54:40;;;;;;;4.50;2.77;;;;;;;36.60;17.69;100255.62;1371313;90;21247;-85
2021/09/12 13:57:08;;;;;;;3.00;2.50;;;;;;;36.75;17.82;100249.59;1371606;90;21297;-87
2021/09/12 13:59:45;;;;;;;3.55;2.55;;;;;;;37.24;18.01;100250.10;1372585;90;22391;-85
2021/09/12 14:02:13;;;;;;;6.57;2.93;;;;;;;37.45;17.30;100250.73;1371637;90;21283;-85
2021/09/12 14:04:44;;;;;;;6.42;3.27;;;;;;;37.28;17.13;100248.05;1373261;90;22128;-86
2021/09/12 14:07:13;;;;;;;6.70;2.42;;;;;;;37.24;17.57;100255.62;1370559;90;22133;-85
2021/09/12 14:09:41;;;;;;;5.90;2.62;;;;;;;37.12;16.36;100251.92;1372019;90;21357;-85
2021/09/12 14:12:09;;;;;;;5.92;2.62;;;;;;;36.93;16.05;100255.05;1369171;89;21313;-86
2021/09/12 14:15:02;;;;;;;4.20;2.58;;;;;;;36.89;15.64;100248.56;1346987;90;21474;-85
2021/09/12 14:17:53;;;;;;;3.08;2.47;;;;;;;36.94;15.91;100248.39;1347141;92;21482;-85
2021/09/12 14:20:24;;;;;;;3.12;2.20;;;;;;;36.93;16.28;100251.72;1350014;91;22376;-85
2021/09/12 14:22:51;;;;;;;4.90;2.50;;;;;;;36.98;15.85;100254.88;1372868;88;21306;-85
2021/09/12 14:25:20;;;;;;;4.65;3.10;;;;;;;37.08;15.18;100252.36;1387086;88;21289;-86
2021/09/12 14:27:48;;;;;;;4.47;2.60;;;;;;;37.26;15.56;100253.89;1383451;90;21199;-86
2021/09/12 14:30:15;;;;;;;;;;;;;;;37.13;15.86;100250.80;1396555;87;22116;-87
2021/09/12 14:33:57;;;;;;;2.67;2.40;;;;;;;36.46;15.24;100248.08;1393944;88;20251;-86
2021/09/12 14:36:24;;;;;;;5.85;2.58;;;;;;;35.74;16.42;100242.02;1393944;88;21288;-85
2021/09/12 14:39:22;;;;;;;3.45;2.35;;;;;;;35.08;17.46;100248.00;1377136;90;21331;-85
2021/09/12 14:48:12;;;;;;;4.83;3.02;;;;;;;34.72;18.33;100247.50;1315465;94;21540;-86
2021/09/12 14:54:34;;;;;;;6.72;2.67;;;;;;;35.43;17.55;100244.24;1314597;93;21347;-86
2021/09/12 14:58:07;;;;;;;;;;;;;;;;;;;;;
2021/09/12 15:08:24;;;;;;;12.88;2.52;;;;;;;33.11;18.27;100241.34;1225168;102;21551;-85
2021/09/12 15:10:53;;;;;;;2.50;2.30;;;;;;;32.09;19.29;100242.42;1249288;100;21382;-86
2021/09/12 15:13:20;;;;;;;7.05;2.60;;;;;;;30.94;20.26;100240.43;1249198;100;21537;-86
2021/09/12 15:15:48;;;;;;;6.47;3.25;;;;;;;30.47;20.58;100236.44;1250731;100;22427;-89
2021/09/12 15:18:15;;;;;;;8.20;3.52;;;;;;;30.05;21.28;100237.77;1241408;100;22221;-85
2021/09/12 15:20:43;;;;;;;6.45;4.00;;;;;;;29.59;22.19;100242.05;1238951;101;21762;-84
2021/09/12 15:23:16;;;;;;;5.20;3.20;;;;;;;29.10;23.10;100231.83;1262742;98;21377;-85
2021/09/12 15:25:44;;;;;;;6.10;3.58;;;;;;;28.67;23.59;100237.30;1266797;98;21328;-86
2021/09/12 15:28:17;;;;;;;3.22;2.67;;;;;;;28.28;24.01;100238.61;1267971;98;21416;-85
2021/09/12 15:30:44;;;;;;;7.60;3.58;;;;;;;27.96;24.30;100240.69;1266011;98;21340;-84
2021/09/12 15:33:44;;;;;;;4.20;3.05;;;;;;;27.71;24.71;100238.66;1267640;98;22368;-85
2021/09/12 15:36:09;;;;;;;10.28;3.25;;;;;;;27.45;25.37;100233.94;1222231;101;21453;-85
2021/09/12 15:38:36;;;;;;;6.90;4.03;;;;;;;27.16;25.84;100232.67;1235108;102;22835;-86
2021/09/12 15:41:04;;;;;;;4.50;3.52;;;;;;;26.87;26.14;100234.89;1246895;100;22283;-86
2021/09/12 15:43:31;;;;;;;7.22;3.60;;;;;;;26.62;26.65;100226.02;1260125;99;22291;-85
2021/09/12 15:45:59;;;;;;;6.50;3.27;;;;;;;26.40;27.02;100228.23;1254245;99;22411;-84
2021/09/12 15:48:26;;;;;;;6.28;3.52;;;;;;;26.26;27.26;100223.75;1252145;99;21489;-85
2021/09/12 15:50:59;;;;;;;8.35;5.17;;;;;;;26.18;27.51;100222.03;1271404;98;21463;-85
2021/09/12 15:53:28;;;;;;;12.80;4.53;;;;;;;26.04;27.95;100226.53;1268239;98;21422;-84
2021/09/12 15:55:55;;;;;;;4.83;3.35;;;;;;;25.93;28.11;100223.42;1267473;98;21379;-85
2021/09/12 15:58:24;;;;;;;13.70;5.35;;;;;;;25.81;28.26;100228.14;1267827;98;21429;-85
2021/09/12 16:04:50;;;;;;;6.55;3.72;;;;;;;25.62;29.42;100218.95;1267816;98;21446;-86
2021/09/12 16:07:18;;;;;;;7.95;3.62;;;;;;;25.53;29.39;100219.11;1268032;98;22347;-85
2021/09/12 16:09:51;;;;;;;9.25;4.80;;;;;;;25.42;29.41;100217.34;1267687;98;22435;-86
2021/09/12 16:12:18;;;;;;;11.57;4.80;;;;;;;25.31;29.22;100218.27;1274001;97;23124;-86
2021/09/12 16:14:47;;;;;;;10.10;4.87;;;;;;;25.18;29.36;100217.56;1375964;89;22182;-86
2021/09/12 16:17:15;;;;;;;6.72;4.30;;;;;;;25.02;29.70;100214.31;1375921;89;21409;-86
2021/09/12 16:19:42;;;;;;;9.45;4.47;;;;;;;24.88;30.41;100209.77;1374734;89;21170;-86
2021/09/12 16:22:10;;;;;;;6.50;4.80;;;;;;;24.69;30.93;100210.57;1375966;89;21346;-86
2021/09/12 16:24:37;;;;;;;13.15;4.97;;;;;;;24.55;31.43;100211.95;1375349;89;21401;-86
2021/09/12 16:27:04;;;;;;;9.10;4.15;;;;;;;24.41;32.42;100214.66;1375987;89;21428;-86
2021/09/12 16:29:38;;;;;;;9.58;3.90;;;;;;;24.25;33.39;100208.95;1376219;89;21214;-86
2021/09/12 16:32:06;;;;;;;7.22;3.62;;;;;;;24.04;34.89;100206.95;1376221;89;21273;-86
2021/09/12 16:34:46;;;;;;;9.15;3.47;;;;;;;23.83;36.20;100206.57;1375984;89;22233;-85
2021/09/12 16:37:21;;;;;;;10.58;3.30;;;;;;;23.60;37.47;100206.62;1375801;89;21214;-85
2021/09/12 16:39:48;;;;;;;10.30;3.42;;;;;;;23.43;38.07;100204.64;1376019;89;22219;-86
2021/09/12 16:42:15;;;;;;;9.43;3.25;;;;;;;23.30;39.01;100204.89;1376071;89;21362;-86
2021/09/12 16:44:47;;;;;;;10.90;3.55;;;;;;;23.19;39.67;100209.80;1375721;89;21354;-85
2021/09/12 16:47:18;;;;;;;10.13;3.60;;;;;;;22.95;40.56;100205.73;1364928;89;21474;-86
2021/09/12 16:49:45;;;;;;;;;;;;;;;22.80;40.01;100205.35;1353411;95;22434;-86
2021/09/12 16:52:12;;;;;;;15.20;5.12;;;;;;;22.68;41.43;100209.92;1355641;90;20830;-86
2021/09/12 16:54:40;;;;;;;13.72;3.83;;;;;;;22.42;42.62;100203.89;1363346;90;21428;-85
2021/09/12 16:57:07;;;;;;;16.37;4.22;;;;;;;22.27;41.52;100207.55;1363220;90;21288;-85
2021/09/12 16:59:36;;;;;;;9.53;3.70;;;;;;;22.11;42.56;100213.02;1363413;90;22093;-85
2021/09/12 17:02:03;;;;;;;25.23;4.60;;;;;;;21.95;43.67;100213.14;1363166;90;21301;-85
2021/09/12 17:04:31;;;;;;;10.80;4.33;;;;;;;21.86;43.55;100214.48;1363678;90;21347;-86
2021/09/12 17:06:59;;;;;;;17.80;4.12;;;;;;;21.66;44.53;100218.77;1364076;90;21274;-85
2021/09/12 17:09:26;;;;;;;15.08;4.65;;;;;;;21.52;44.89;100218.12;1363428;90;21340;-86
2021/09/12 17:11:53;;;;;;;10.68;3.75;;;;;;;21.41;45.14;100221.56;1363308;90;21266;-85
2021/09/12 17:14:20;;;;;;;11.63;3.62;;;;;;;21.33;45.78;100219.94;1362914;90;21222;-85
2021/09/12 17:16:48;;;;;;;18.80;4.37;;;;;;;21.23;46.52;100224.19;1363609;90;21355;-84
2021/09/12 17:19:15;;;;;;;13.03;3.40;;;;;;;21.03;47.51;100227.91;1351301;93;21333;-85
2021/09/12 17:21:42;;;;;;;19.00;3.65;;;;;;;20.81;48.10;100233.37;1374107;90;21267;-85
2021/09/12 17:24:14;;;;;;;15.08;4.00;;;;;;;20.64;48.66;100227.72;1381038;88;21193;-85
2021/09/12 17:26:44;;;;;;;11.95;4.20;;;;;;;20.51;49.24;100229.92;1366634;90;22110;-85
2021/09/12 17:29:11;;;;;;;20.67;4.67;;;;;;;20.39;49.59;100227.64;1401494;88;21458;-85
2021/09/12 17:31:38;;;;;;;30.27;4.53;;;;;;;20.32;49.95;100228.22;1402219;88;22276;-85
2021/09/12 17:34:09;;;;;;;14.83;3.60;;;;;;;20.13;50.99;100235.34;1401529;88;21236;-85
2021/09/12 17:36:42;;;;;;;14.50;4.28;;;;;;;19.99;50.99;100242.63;1401552;88;21398;-85
2021/09/12 17:39:43;;;;;;;11.70;4.20;;;;;;;19.91;51.14;100240.19;1404030;88;21250;-84
2021/09/12 17:42:10;;;;;;;43.77;5.23;;;;;;;19.84;51.28;100237.02;1401224;88;21309;-85
2021/09/12 17:44:38;;;;;;;20.17;4.70;;;;;;;19.80;51.84;100241.70;1400945;88;21328;-84
2021/09/12 17:47:05;;;;;;;27.30;5.03;;;;;;;19.71;52.87;100236.23;1400317;86;22343;-85
2021/09/12 17:49:34;;;;;;;19.70;4.63;;;;;;;19.56;53.26;100244.02;1398789;88;21303;-85
2021/09/12 17:52:03;;;;;;;25.27;4.67;;;;;;;19.41;54.62;100245.28;1398579;88;21206;-85
2021/09/12 17:54:37;;;;;;;18.67;4.70;;;;;;;19.25;54.76;100247.39;1399341;88;21399;-85
2021/09/12 17:57:04;;;;;;;25.93;5.70;;;;;;;19.14;54.77;100250.70;1383969;88;21155;-85
2021/09/12 17:59:32;;;;;;;11.80;4.27;;;;;;;19.04;55.75;100256.98;1399071;88;21185;-84
2021/09/12 18:02:00;;;;;;;17.83;4.87;;;;;;;18.87;55.57;100248.53;1398824;88;21931;-84
2021/09/12 18:04:35;;;;;;;22.90;6.87;;;;;;;18.67;55.84;100247.14;1398642;88;22505;-84
2021/09/12 18:07:03;;;;;;;27.33;7.37;;;;;;;18.51;56.10;100247.56;1400213;87;21608;-84
2021/09/12 18:09:37;;;;;;;26.80;6.47;;;;;;;18.42;56.50;100249.61;1400817;88;22056;-84
2021/09/12 18:12:05;;;;;;;35.07;8.20;;;;;;;18.29;57.25;100250.38;1400746;88;21237;-85
2021/09/12 18:14:34;;;;;;;39.63;7.77;;;;;;;18.23;56.94;100251.20;1398781;88;21296;-86
2021/09/12 18:17:01;;;;;;;44.90;9.13;;;;;;;18.21;57.28;100253.24;1398601;88;21244;-85
2021/09/12 18:19:39;;;;;;;;;;;;;;;;;;;;;
2021/09/12 18:22:06;;;;;;;31.80;9.67;;;;;;;17.98;59.05;100258.45;1398262;86;21272;-84
2021/09/12 18:24:34;;;;;;;40.17;9.97;;;;;;;17.91;58.29;100257.58;1398041;87;21212;-85
2021/09/12 18:27:01;;;;;;;33.07;9.17;;;;;;;17.83;59.09;100258.27;1398713;87;21249;-85
2021/09/12 18:29:30;;;;;;;27.77;9.30;;;;;;;17.72;59.31;100259.12;1399398;88;22084;-85
2021/09/12 18:31:59;;;;;;;44.87;9.00;;;;;;;17.60;59.36;100262.84;1395911;88;21257;-84
2021/09/12 18:34:26;;;;;;;28.60;8.90;;;;;;;17.47;59.89;100258.77;1398925;88;21131;-84
2021/09/12 18:36:54;;;;;;;26.40;8.80;;;;;;;17.37;60.49;100264.97;1398514;88;21205;-84
2021/09/12 18:43:28;;;;;;;27.43;7.20;;;;;;;17.24;62.21;100265.72;1398776;87;21427;-85
2021/09/12 18:46:05;;;;;;;29.60;7.70;;;;;;;17.15;62.27;100272.24;1398904;87;21213;-84
2021/09/12 18:48:38;;;;;;;22.60;8.13;;;;;;;17.08;61.50;100276.18;1393486;88;21250;-86
2021/09/12 18:51:09;;;;;;;38.85;13.32;;;;;;;16.98;62.57;100269.53;1392074;88;22209;-84
2021/09/12 18:53:37;;;;;;;22.80;9.93;;;;;;;16.91;63.25;100278.81;1401273;88;21397;-85
2021/09/12 18:56:04;;;;;;;20.77;5.77;;;;;;;16.86;62.13;100275.89;1397006;88;21249;-85
2021/09/12 18:58:32;;;;;;;22.53;5.67;;;;;;;16.81;61.71;100272.98;1393817;87;21355;-85
2021/09/12 19:00:59;;;;;;;13.73;4.43;;;;;;;16.77;62.32;100274.37;1392256;88;21231;-86
2021/09/12 19:03:28;;;;;;;15.37;4.87;;;;;;;16.70;62.30;100268.42;1392349;88;21274;-85
2021/09/12 19:05:56;;;;;;;17.37;6.37;;;;;;;16.67;62.47;100276.83;1392576;88;21319;-86
2021/09/12 19:08:23;;;;;;;27.90;8.17;;;;;;;16.62;62.94;100270.41;1392574;87;21311;-86
2021/09/12 19:10:52;;;;;;;20.60;7.80;;;;;;;16.58;62.94;100276.64;1395268;88;21198;-86
2021/09/12 19:13:19;;;;;;;30.63;9.17;;;;;;;16.53;63.16;100267.03;1399784;88;21405;-86
2021/09/12 19:15:46;;;;;;;37.37;10.40;;;;;;;16.50;63.58;100274.09;1380823;89;21183;-85
2021/09/12 19:18:13;;;;;;;33.00;10.43;;;;;;;16.45;63.71;100275.98;1396038;88;21459;-85
2021/09/12 19:20:41;;;;;;;44.40;12.20;;;;;;;16.42;63.77;100272.88;1397089;87;21210;-85
2021/09/12 19:23:08;;;;;;;28.00;10.23;;;;;;;16.38;64.50;100272.42;1397169;88;21245;-85
2021/09/12 19:25:38;;;;;;;28.57;10.33;;;;;;;16.34;64.52;100272.98;1394764;88;21250;-86
2021/09/12 19:28:06;;;;;;;31.23;10.58;;;;;;;16.26;65.34;100275.28;1377380;90;23139;-86
2021/09/12 19:30:34;;;;;;;27.87;9.63;;;;;;;16.17;65.70;100285.25;1397224;88;21205;-85
2021/09/12 19:33:05;;;;;;;34.03;10.27;;;;;;;16.11;65.89;100283.33;1363207;90;21515;-86
2021/09/12 19:35:33;;;;;;;42.17;12.07;;;;;;;16.09;65.29;100282.68;1374927;89;21436;-84
2021/09/12 19:38:02;;;;;;;26.67;9.60;;;;;;;16.08;65.46;100285.52;1378024;89;21407;-85
2021/09/12 19:40:44;;;;;;;32.73;9.20;;;;;;;16.04;66.37;100284.25;1397504;87;21304;-86
2021/09/12 19:43:18;;;;;;;33.03;10.67;;;;;;;16.00;65.74;100293.15;1397363;88;21267;-87
2021/09/12 19:45:58;;;;;;;33.83;10.70;;;;;;;15.97;65.73;100290.34;1397429;88;22448;-86
2021/09/12 19:48:33;;;;;;;36.20;10.30;;;;;;;15.90;67.12;100284.08;1399518;88;21436;-86
2021/09/12 19:51:02;;;;;;;23.43;9.00;;;;;;;15.84;66.90;100290.16;1400164;88;21171;-86
2021/09/12 19:53:29;;;;;;;24.80;9.30;;;;;;;15.75;67.46;100293.43;1400402;88;21271;-85
2021/09/12 19:56:00;;;;;;;40.27;9.30;;;;;;;15.70;67.38;100296.33;1397337;88;22328;-85
2021/09/12 19:58:28;;;;;;;26.53;8.43;;;;;;;15.66;67.57;100294.51;1397798;88;21259;-85
2021/09/12 20:00:56;;;;;;;25.27;9.33;;;;;;;15.64;67.24;100295.19;1398332;88;21206;-85
2021/09/12 20:03:23;;;;;;;24.07;9.10;;;;;;;15.63;67.05;100296.73;1399330;87;21250;-85
2021/09/12 20:05:52;;;;;;;16.27;7.13;;;;;;;15.52;69.42;100298.00;1398071;88;22154;-85
2021/09/12 20:08:20;;;;;;;19.37;6.33;;;;;;;15.45;68.70;100299.72;1398315;88;21282;-85
2021/09/12 20:10:47;;;;;;;18.00;6.23;;;;;;;15.42;67.57;100298.76;1389080;88;21390;-85
2021/09/12 20:13:14;;;;;;;22.33;7.40;;;;;;;15.32;67.72;100298.52;1377649;89;22403;-85
2021/09/12 20:15:41;;;;;;;12.73;5.27;;;;;;;15.22;67.35;100296.64;1398830;88;22183;-85
2021/09/12 20:18:09;;;;;;;18.07;7.60;;;;;;;15.07;68.40;100297.91;1397503;88;21201;-85
2021/09/12 20:20:36;;;;;;;17.93;6.50;;;;;;;14.99;69.43;100306.00;1392900;88;21396;-85
2021/09/12 20:23:04;;;;;;;14.47;7.80;;;;;;;14.96;68.60;100303.70;1397137;88;21279;-87
2021/09/12 20:25:40;;;;;;;14.77;5.90;;;;;;;14.89;69.04;100308.89;1398064;88;22099;-86
2021/09/12 20:28:20;;;;;;;23.73;7.07;;;;;;;14.86;68.69;100309.25;1391838;88;21275;-86
2021/09/12 20:30:48;;;;;;;16.47;7.87;;;;;;;14.85;68.25;100310.27;1409917;88;21227;-86
2021/09/12 20:33:19;;;;;;;20.80;8.83;;;;;;;14.82;68.66;100310.63;1399669;88;21272;-86
2021/09/12 20:35:46;;;;;;;30.20;7.10;;;;;;;14.79;68.57;100307.49;1400245;88;21449;-86
2021/09/12 20:38:13;;;;;;;35.83;9.60;;;;;;;14.79;68.27;100306.98;1396894;88;21367;-86
2021/09/12 20:40:42;;;;;;;28.10;9.40;;;;;;;14.78;68.47;100310.63;1399316;88;21318;-86
2021/09/12 20:43:11;;;;;;;23.63;9.63;;;;;;;14.76;68.37;100304.68;1399779;87;21207;-85
2021/09/12 20:45:50;;;;;;;28.57;8.70;;;;;;;14.74;68.65;100306.69;1400030;88;21125;-86
2021/09/12 20:48:18;;;;;;;21.10;8.67;;;;;;;14.75;68.80;100314.98;1402457;87;21411;-86
2021/09/12 20:50:45;;;;;;;20.27;8.33;;;;;;;14.73;68.94;100309.51;1405363;87;22855;-86
2021/09/12 20:53:14;;;;;;;21.40;7.57;;;;;;;14.72;69.01;100315.86;1405702;87;21271;-86
2021/09/12 20:55:42;;;;;;;29.90;8.80;;;;;;;14.74;69.52;100317.34;1384180;89;21412;-88
2021/09/12 20:58:09;;;;;;;16.37;7.57;;;;;;;14.78;68.66;100311.97;1405332;87;21402;-86
2021/09/12 21:00:36;;;;;;;21.90;8.03;;;;;;;14.79;68.84;100319.48;1403873;87;21407;-86
2021/09/12 21:03:09;;;;;;;25.70;8.33;;;;;;;14.76;69.13;100314.00;1384823;88;21296;-86
2021/09/12 21:05:37;;;;;;;19.60;8.30;;;;;;;14.75;69.08;100315.50;1397544;87;21370;-86
2021/09/12 21:08:04;;;;;;;15.83;7.90;;;;;;;14.71;69.16;100312.37;1397610;87;22160;-86
2021/09/12 21:10:38;;;;;;;21.80;7.83;;;;;;;14.70;69.30;100313.35;1398288;87;22131;-86
2021/09/12 21:13:05;;;;;;;26.13;7.83;;;;;;;14.65;69.55;100315.23;1401178;87;21256;-86
2021/09/12 21:15:38;;;;;;;23.83;7.07;;;;;;;14.61;69.88;100317.91;1403345;87;21132;-85
2021/09/12 21:18:08;;;;;;;17.33;6.93;;;;;;;14.59;69.82;100323.11;1405749;87;22182;-86
2021/09/12 21:20:38;;;;;;;15.23;7.97;;;;;;;14.56;69.76;100315.48;1402130;87;22268;-86
2021/09/12 21:23:05;;;;;;;12.15;6.12;;;;;;;14.53;69.64;100311.80;1401817;88;21250;-86
2021/09/12 21:25:33;;;;;;;12.43;6.57;;;;;;;14.50;69.77;100316.98;1382148;89;21296;-86
2021/09/12 21:28:00;;;;;;;17.53;6.07;;;;;;;14.47;69.84;100322.63;1400320;87;21345;-86
2021/09/12 21:30:28;;;;;;;19.30;6.73;;;;;;;14.41;69.84;100322.84;1403883;88;21312;-86
2021/09/12 21:32:55;;;;;;;18.90;6.70;;;;;;;14.40;69.59;100329.16;1380649;89;21360;-86
2021/09/12 21:35:23;;;;;;;15.70;6.10;;;;;;;14.37;69.91;100328.69;1383302;89;22220;-87
2021/09/12 21:37:51;;;;;;;13.27;6.37;;;;;;;14.26;70.83;100324.58;1402016;87;21200;-89
2021/09/12 21:40:18;;;;;;;12.97;6.20;;;;;;;14.22;70.04;100325.94;1400561;89;21325;-88
2021/09/12 21:42:45;;;;;;;13.87;6.00;;;;;;;14.16;69.97;100332.78;1403523;87;21368;-88
2021/09/12 21:45:15;;;;;;;16.20;6.30;;;;;;;14.06;71.37;100326.00;1401540;87;21185;-87
2021/09/12 21:47:42;;;;;;;21.50;6.37;;;;;;;14.01;70.90;100334.48;1388399;88;21462;-86
2021/09/12 21:50:11;;;;;;;16.50;6.27;;;;;;;13.97;71.00;100334.52;1391529;88;21434;-87
2021/09/12 21:52:40;;;;;;;15.30;5.87;;;;;;;13.95;71.00;100334.70;1386707;90;22180;-87
2021/09/12 21:55:09;;;;;;;21.33;7.00;;;;;;;13.93;70.75;100330.05;1391878;88;21525;-87
2021/09/12 21:57:58;;;;;;;13.90;5.90;;;;;;;13.91;70.62;100324.06;1381212;90;21135;-86
2021/09/12 22:01:39;;;;;;;15.80;6.10;;;;;;;13.86;71.57;100325.57;1388290;89;22240;-85
2021/09/12 22:04:10;;;;;;;12.37;6.27;;;;;;;13.82;71.02;100326.93;1389366;88;21287;-88
2021/09/12 22:06:38;;;;;;;19.03;5.93;;;;;;;13.79;70.77;100325.44;1391279;88;21399;-88
2021/09/12 22:09:05;;;;;;;14.33;6.97;;;;;;;13.79;70.72;100328.09;1391934;88;22263;-88
2021/09/12 22:11:32;;;;;;;14.43;7.23;;;;;;;13.80;70.61;100323.09;1391628;88;21323;-87
2021/09/12 22:14:00;;;;;;;15.20;6.40;;;;;;;13.81;70.57;100326.10;1391610;88;22160;-87
2021/09/12 22:16:29;;;;;;;14.50;5.93;;;;;;;13.83;70.16;100325.41;1391282;88;21451;-88
2021/09/12 22:18:56;;;;;;;9.40;6.40;;;;;;;13.81;70.40;100326.10;1391367;88;21662;-88
2021/09/12 22:21:25;;;;;;;17.97;8.03;;;;;;;13.76;70.35;100325.78;1391675;88;21308;-88
2021/09/12 22:23:52;;;;;;;18.70;7.67;;;;;;;13.73;70.34;100328.28;1391657;88;22203;-88
2021/09/12 22:26:20;;;;;;;15.23;6.80;;;;;;;13.69;70.76;100326.11;1391265;88;22277;-88
2021/09/12 22:28:47;;;;;;;28.57;7.53;;;;;;;13.67;70.61;100321.48;1374073;89;21293;-88
2021/09/12 22:31:15;;;;;;;14.50;7.53;;;;;;;13.58;71.63;100317.16;1391424;88;21398;-88
2021/09/12 22:33:43;;;;;;;16.50;7.03;;;;;;;13.48;72.02;100322.17;1373343;89;21472;-89
2021/09/12 22:36:10;;;;;;;15.20;8.10;;;;;;;13.43;72.56;100327.16;1391821;88;21287;-88
2021/09/12 22:38:37;;;;;;;14.07;7.17;;;;;;;13.38;71.94;100327.33;1391213;88;21228;-88
2021/09/12 22:41:10;;;;;;;15.23;6.30;;;;;;;13.31;72.83;100328.02;1391542;88;21463;-88
2021/09/12 22:43:38;;;;;;;23.43;8.20;;;;;;;13.26;72.49;100324.19;1391322;88;21265;-88
2021/09/12 22:46:05;;;;;;;15.20;7.03;;;;;;;13.18;72.69;100326.84;1391460;88;21235;-87
2021/09/12 22:52:17;;;;;;;18.67;8.03;;;;;;;13.06;72.51;100329.84;1377233;89;21383;-87
2021/09/12 22:54:45;;;;;;;16.27;7.00;;;;;;;13.00;72.55;100333.13;1376356;89;21398;-87
2021/09/12 22:57:13;;;;;;;18.07;8.50;;;;;;;12.89;74.12;100329.50;1404233;87;22216;-88
2021/09/12 22:59:41;;;;;;;18.60;8.63;;;;;;;12.85;73.46;100334.79;1383893;89;21330;-87
2021/09/12 23:02:09;;;;;;;22.43;10.10;;;;;;;12.82;73.52;100333.80;1404337;87;22227;-87
2021/09/12 23:04:36;;;;;;;21.67;9.13;;;;;;;12.80;72.98;100327.81;1404300;87;22207;-87
2021/09/12 23:07:04;;;;;;;21.23;9.80;;;;;;;12.79;73.12;100325.66;1404683;87;22791;-87
2021/09/12 23:09:31;;;;;;;21.10;9.93;;;;;;;12.77;73.73;100323.66;1404692;87;21249;-88
2021/09/12 23:12:01;;;;;;;21.57;9.60;;;;;;;12.78;73.34;100327.16;1404119;87;22212;-87
2021/09/12 23:14:28;;;;;;;19.50;10.07;;;;;;;12.75;74.27;100328.82;1404757;87;21338;-88
2021/09/12 23:16:56;;;;;;;18.60;8.47;;;;;;;12.72;74.32;100322.52;1404638;87;21360;-87
2021/09/12 23:19:23;;;;;;;21.93;9.80;;;;;;;12.72;73.74;100318.53;1404360;87;21360;-87
2021/09/12 23:21:50;;;;;;;18.70;8.43;;;;;;;12.70;74.70;100318.67;1404513;87;22181;-88
2021/09/12 23:24:18;;;;;;;15.47;8.33;;;;;;;12.69;74.14;100319.69;1403983;87;22573;-87
2021/09/12 23:26:45;;;;;;;21.97;10.20;;;;;;;12.69;73.76;100318.36;1403771;87;22245;-87
2021/09/12 23:29:13;;;;;;;17.40;9.10;;;;;;;12.71;73.83;100316.84;1383661;89;21204;-87
2021/09/12 23:31:41;;;;;;;14.80;7.47;;;;;;;12.71;73.81;100320.83;1403922;87;21486;-86
2021/09/12 23:34:10;;;;;;;23.10;7.97;;;;;;;12.67;74.57;100316.86;1404051;87;21382;-87
2021/09/12 23:36:37;;;;;;;13.10;7.57;;;;;;;12.63;73.98;100312.38;1404582;87;21383;-87